Time;durP1;ratioP1;P1;durP2;ratioP2;P2;SDS_P1;SDS_P2;PMS_P1;PMS_P2;Temp;Humidity;BMP_temperature;BMP_pressure;BME280_temperature;BME280_humidity;BME280_pressure;Samples;Min_cycle;Max_cycle;Signal;HPM_P1;HPM_P2
2024/04/08 00:01:48;;;;;;;;;4.00;4.00;;;;;16.31;83.90;100750.28;5080915;27;48201;-83
2024/04/08 00:04:13;;;;;;;;;3.50;3.00;;;;;16.26;84.09;100731.69;5093911;27;50059;-83
2024/04/08 00:06:38;;;;;;;;;4.00;4.00;;;;;16.34;84.12;100749.22;5082310;27;58675;-83
2024/04/08 00:09:04;;;;;;;;;5.25;4.25;;;;;16.31;84.12;100742.19;5101491;27;58661;-83
2024/04/08 00:11:30;;;;;;;;;3.25;3.25;;;;;16.32;84.44;100741.22;5102125;27;45333;-83
2024/04/08 00:13:55;;;;;;;;;4.00;4.00;;;;;16.27;84.44;100711.00;5103826;27;45309;-83
2024/04/08 00:16:20;;;;;;;;;3.50;3.50;;;;;16.28;84.48;100729.75;5104321;27;45924;-83
2024/04/08 00:18:46;;;;;;;;;6.00;4.75;;;;;16.19;84.25;100719.53;5104712;27;45320;-83
2024/04/08 00:21:11;;;;;;;;;2.75;2.75;;;;;16.19;84.28;100710.56;5104594;27;46105;-83
2024/04/08 00:23:37;;;;;;;;;4.75;3.50;;;;;16.23;84.55;100720.22;5098246;27;45313;-83
2024/04/08 00:26:04;;;;;;;;;3.00;3.00;;;;;16.18;84.62;100707.00;5093967;27;45431;-83
2024/04/08 00:28:29;;;;;;;;;4.25;4.25;;;;;16.08;84.05;100687.78;5092750;27;45523;-83
2024/04/08 00:31:04;;;;;;;;;3.00;2.50;;;;;16.07;84.23;100694.16;5104422;27;45555;-83
2024/04/08 00:33:31;;;;;;;;;2.75;2.75;;;;;16.10;84.08;100698.47;5103878;27;45481;-83
2024/04/08 00:35:56;;;;;;;;;3.75;3.75;;;;;15.95;84.12;100685.88;5104373;27;45260;-83
2024/04/08 00:38:22;;;;;;;;;5.00;5.00;;;;;16.15;84.47;100722.47;5104180;27;45651;-83
2024/04/08 00:40:47;;;;;;;;;4.00;3.00;;;;;16.10;84.48;100720.91;5103244;27;45972;-83
2024/04/08 00:43:13;;;;;;;;;4.75;4.75;;;;;16.18;84.87;100722.31;5104522;27;45544;-83
2024/04/08 00:45:40;;;;;;;;;4.75;4.25;;;;;16.16;84.92;100708.91;5104912;27;45400;-83
2024/04/08 00:48:07;;;;;;;;;2.00;2.00;;;;;16.14;85.16;100683.91;5099874;27;45318;-83
2024/04/08 00:50:35;;;;;;;;;3.00;3.00;;;;;16.08;84.76;100668.09;5085716;27;46143;-83
2024/04/08 00:53:01;;;;;;;;;4.00;2.75;;;;;16.05;84.87;100657.50;5104385;27;45219;-82
2024/04/08 00:55:27;;;;;;;;;3.00;3.00;;;;;16.12;84.80;100661.56;5103220;27;45290;-83
2024/04/08 00:57:56;;;;;;;;;3.75;3.25;;;;;16.10;84.85;100658.97;5086024;27;45809;-83
2024/04/08 01:00:21;;;;;;;;;5.00;5.00;;;;;16.03;84.81;100656.72;5103013;27;47449;-82
2024/04/08 01:02:47;;;;;;;;;6.00;5.00;;;;;16.05;85.00;100657.50;5104654;27;48787;-83
2024/04/08 01:05:14;;;;;;;;;5.75;5.00;;;;;16.03;84.96;100651.34;5097344;27;45261;-82
2024/04/08 01:07:41;;;;;;;;;5.50;5.50;;;;;15.93;84.84;100645.59;5101187;27;45421;-82
2024/04/08 01:10:07;;;;;;;;;7.25;5.00;;;;;16.09;85.31;100669.84;5103908;27;45376;-82
2024/04/08 01:12:32;;;;;;;;;8.00;6.50;;;;;15.98;85.40;100654.28;5104416;27;45907;-82
2024/04/08 01:14:58;;;;;;;;;4.50;4.25;;;;;16.02;85.76;100671.13;5104265;27;45305;-82
2024/04/08 01:17:23;;;;;;;;;6.00;4.50;;;;;16.08;85.32;100690.50;5104525;27;45300;-82
2024/04/08 01:19:48;;;;;;;;;5.00;5.00;;;;;16.04;85.50;100693.47;5103277;27;46548;-82
2024/04/08 01:22:14;;;;;;;;;6.75;5.75;;;;;15.88;85.93;100682.66;5104755;27;45319;-82
2024/04/08 01:24:39;;;;;;;;;2.50;2.25;;;;;15.97;85.64;100694.75;5095042;27;45387;-82
2024/04/08 01:27:04;;;;;;;;;3.25;3.25;;;;;15.95;85.58;100704.72;5101105;27;45273;-82
2024/04/08 01:29:29;;;;;;;;;4.00;3.00;;;;;15.98;86.08;100709.94;5100940;27;45370;-82
2024/04/08 01:31:55;;;;;;;;;5.50;5.50;;;;;15.99;85.85;100723.34;5084948;27;54623;-82
2024/04/08 01:34:20;;;;;;;;;5.00;5.00;;;;;15.97;85.93;100719.84;5101681;27;45364;-82
2024/04/08 01:36:45;;;;;;;;;4.00;4.00;;;;;15.97;86.09;100719.84;5104010;27;45207;-82
2024/04/08 01:39:11;;;;;;;;;5.75;5.75;;;;;16.00;86.21;100726.88;5103599;27;47067;-82
2024/04/08 01:41:36;;;;;;;;;6.00;5.00;;;;;16.04;86.04;100733.84;5103180;27;57275;-82
2024/04/08 01:44:01;;;;;;;;;6.75;5.00;;;;;16.00;86.11;100729.56;5102108;27;45468;-82
2024/04/08 01:46:27;;;;;;;;;5.00;5.00;;;;;16.03;86.24;100732.09;5085551;27;45243;-82
2024/04/08 01:48:52;;;;;;;;;2.50;2.25;;;;;16.08;85.98;100743.47;5094048;27;52340;-82
2024/04/08 01:51:17;;;;;;;;;4.50;3.00;;;;;16.00;86.01;100716.97;5103892;27;45401;-82
2024/04/08 01:53:42;;;;;;;;;4.00;4.00;;;;;16.04;86.14;100704.22;5103849;27;45218;-82
2024/04/08 01:56:08;;;;;;;;;5.50;5.50;;;;;16.09;85.91;100703.00;5085173;27;60288;-82
2024/04/08 01:58:33;;;;;;;;;6.00;6.00;;;;;16.13;86.02;100701.00;5102251;27;45553;-82
2024/04/08 02:00:58;;;;;;;;;7.50;7.25;;;;;16.14;85.93;100688.41;5100457;27;46365;-82
2024/04/08 02:03:24;;;;;;;;;7.50;7.50;;;;;16.06;86.04;100668.19;5103668;27;45261;-82
2024/04/08 02:05:49;;;;;;;;;9.00;7.25;;;;;16.11;86.11;100670.63;5095801;27;45392;-82
2024/04/08 02:08:14;;;;;;;;;6.25;6.25;;;;;16.03;86.21;100662.97;5103487;27;54037;-81
2024/04/08 02:10:40;;;;;;;;;8.50;8.50;;;;;16.00;86.26;100654.19;5103591;27;45289;-81
2024/04/08 02:13:05;;;;;;;;;8.00;7.00;;;;;16.02;86.38;100649.59;5103666;27;45400;-81
2024/04/08 02:15:31;;;;;;;;;7.50;6.50;;;;;16.03;86.54;100643.25;5103785;27;45226;-80
2024/04/08 02:17:56;;;;;;;;;7.00;7.00;;;;;16.06;86.27;100632.31;5103044;27;45513;-81
2024/04/08 02:20:21;;;;;;;;;6.25;6.25;;;;;16.02;86.30;100615.47;5103189;27;57892;-81
2024/04/08 02:22:47;;;;;;;;;8.00;8.00;;;;;16.04;86.24;100607.31;5085161;27;45260;-81
2024/04/08 02:25:12;;;;;;;;;7.00;6.00;;;;;16.04;86.27;100621.63;5094612;27;61844;-81
2024/04/08 02:27:38;;;;;;;;;5.75;5.75;;;;;16.03;86.17;100616.31;5099184;27;45278;-81
2024/04/08 02:30:05;;;;;;;;;10.50;7.00;;;;;15.96;86.08;100605.03;5082691;27;45453;-81
2024/04/08 02:32:30;;;;;;;;;7.00;7.00;;;;;15.97;86.08;100616.66;5085796;27;46102;-81
2024/04/08 02:34:56;;;;;;;;;10.00;9.00;;;;;15.93;85.93;100608.75;5103570;27;45627;-81
2024/04/08 02:37:21;;;;;;;;;9.00;7.25;;;;;15.96;86.16;100612.25;5101413;27;46159;-80
2024/04/08 02:39:46;;;;;;;;;14.00;10.50;;;;;15.93;86.20;100616.84;5100975;27;45792;-80
2024/04/08 02:42:12;;;;;;;;;9.75;9.00;;;;;15.85;86.26;100597.56;5103692;27;46023;-81
2024/04/08 02:44:37;;;;;;;;;11.25;10.75;;;;;15.87;86.37;100601.06;5096207;27;45272;-81
2024/04/08 02:47:03;;;;;;;;;10.50;10.00;;;;;15.89;86.21;100604.53;5095658;27;45252;-81
2024/04/08 02:49:28;;;;;;;;;13.25;13.25;;;;;15.90;86.45;100610.75;5093544;27;45285;-81
2024/04/08 02:51:56;;;;;;;;;13.00;12.00;;;;;15.90;86.54;100625.13;5085139;27;46011;-81
2024/04/08 02:54:21;;;;;;;;;14.75;11.00;;;;;15.93;86.38;100627.59;5102892;27;45215;-81
2024/04/08 02:56:48;;;;;;;;;14.50;14.50;;;;;15.92;86.65;100622.31;5084493;27;64354;-81
2024/04/08 02:59:14;;;;;;;;;16.50;16.25;;;;;15.84;86.72;100608.44;5087662;27;45523;-80
2024/04/08 03:01:39;;;;;;;;;15.25;15.25;;;;;15.91;86.88;100616.06;5079099;27;45521;-81
2024/04/08 03:04:04;;;;;;;;;15.50;14.00;;;;;15.85;86.62;100613.72;5079568;28;45240;-81
2024/04/08 03:06:32;;;;;;;;;15.25;13.25;;;;;15.82;87.03;100605.84;5075628;27;45439;-81
2024/04/08 03:08:57;;;;;;;;;17.75;14.00;;;;;15.86;87.24;100610.06;5078550;27;45531;-81
2024/04/08 03:11:23;;;;;;;;;15.75;13.25;;;;;15.87;87.09;100614.50;5075597;28;45372;-81
2024/04/08 03:13:48;;;;;;;;;14.25;12.75;;;;;15.81;87.26;100619.38;5084767;27;45251;-81
2024/04/08 03:16:14;;;;;;;;;16.00;15.75;;;;;15.78;87.22;100619.53;5082296;27;45964;-81
2024/04/08 03:18:39;;;;;;;;;17.75;16.50;;;;;15.80;87.28;100609.56;5077879;27;45349;-81
2024/04/08 03:21:05;;;;;;;;;12.75;12.00;;;;;15.82;87.58;100613.91;5075290;28;45194;-81
2024/04/08 03:23:30;;;;;;;;;16.00;11.50;;;;;15.78;87.52;100609.63;5081959;27;45253;-81
2024/04/08 03:25:57;;;;;;;;;12.50;9.75;;;;;15.75;87.50;100604.38;5073752;27;47302;-81
2024/04/08 03:28:23;;;;;;;;;10.00;10.00;;;;;15.71;87.57;100601.00;5094705;27;45727;-81
2024/04/08 03:30:48;;;;;;;;;12.75;11.50;;;;;15.76;87.61;100603.47;5078400;27;45296;-81
2024/04/08 03:33:14;;;;;;;;;12.50;11.25;;;;;15.70;87.83;100593.03;5081069;28;67902;-81
2024/04/08 03:35:39;;;;;;;;;12.00;12.00;;;;;15.70;88.01;100587.63;5080521;28;48815;-81
2024/04/08 03:38:04;;;;;;;;;11.75;11.00;;;;;15.76;87.78;100602.63;5081479;28;61933;-81
2024/04/08 03:40:29;;;;;;;;;15.00;13.00;;;;;15.76;87.98;100591.84;5081863;27;45358;-81
2024/04/08 03:42:55;;;;;;;;;10.25;10.25;;;;;15.69;88.28;100567.94;5079865;28;49606;-81
2024/04/08 03:45:20;;;;;;;;;14.00;10.50;;;;;15.54;88.20;100521.25;5097180;27;64874;-81
2024/04/08 03:47:46;;;;;;;;;9.25;9.00;;;;;15.65;87.86;100514.38;5080836;27;45336;-81
2024/04/08 03:50:11;;;;;;;;;11.25;10.25;;;;;15.74;87.57;100535.41;5073943;28;52230;-81
2024/04/08 03:52:36;;;;;;;;;6.50;6.50;;;;;15.74;87.59;100527.31;5081417;27;49048;-80
2024/04/08 03:55:02;;;;;;;;;9.00;8.50;;;;;15.74;87.83;100540.78;5081758;27;45734;-81
2024/04/08 03:57:27;;;;;;;;;12.00;12.00;;;;;15.62;87.64;100523.50;5081009;27;45413;-81
2024/04/08 03:59:52;;;;;;;;;10.50;10.50;;;;;15.71;87.82;100540.94;5078543;27;45443;-81
2024/04/08 04:02:18;;;;;;;;;11.75;11.75;;;;;15.63;87.61;100532.44;5101999;27;45339;-81
2024/04/08 04:04:44;;;;;;;;;13.00;12.00;;;;;15.59;87.76;100522.81;5095538;27;62161;-81
2024/04/08 04:07:09;;;;;;;;;11.00;11.00;;;;;15.66;87.74;100543.03;5101517;27;45242;-80
2024/04/08 04:09:35;;;;;;;;;9.50;8.50;;;;;15.66;87.94;100546.59;5102142;27;45234;-80
2024/04/08 04:12:00;;;;;;;;;10.00;10.00;;;;;15.69;87.88;100556.31;5101437;27;45197;-81
2024/04/08 04:14:25;;;;;;;;;13.50;11.25;;;;;15.68;87.79;100557.25;5083582;27;56770;-81
2024/04/08 04:16:51;;;;;;;;;13.75;10.75;;;;;15.56;87.82;100548.91;5101303;27;58341;-81
2024/04/08 04:19:17;;;;;;;;;9.25;8.00;;;;;15.61;87.77;100566.66;5083704;27;45231;-80
2024/04/08 04:21:42;;;;;;;;;9.00;8.00;;;;;15.57;87.97;100566.81;5101574;27;45516;-81
2024/04/08 04:24:07;;;;;;;;;11.00;9.50;;;;;15.61;87.94;100580.09;5095211;27;45656;-81
2024/04/08 04:26:33;;;;;;;;;10.25;10.25;;;;;15.61;88.28;100586.34;5079765;27;65105;-81
2024/04/08 04:28:58;;;;;;;;;11.50;10.50;;;;;15.57;88.34;100574.88;5081694;27;51271;-81
2024/04/08 04:31:23;;;;;;;;;12.25;12.25;;;;;15.52;88.57;100560.81;5101311;27;57307;-81
2024/04/08 04:33:48;;;;;;;;;11.50;11.00;;;;;15.56;88.70;100562.38;5101632;27;59873;-81
2024/04/08 04:36:14;;;;;;;;;13.00;11.00;;;;;15.62;88.77;100565.66;5102727;27;47159;-81
2024/04/08 04:38:39;;;;;;;;;8.75;7.00;;;;;15.57;89.16;100550.66;5083723;27;45511;-81
2024/04/08 04:41:06;;;;;;;;;10.00;8.00;;;;;15.49;88.40;100526.03;5101584;27;45305;-80
2024/04/08 04:43:31;;;;;;;;;8.75;8.75;;;;;15.60;88.52;100543.38;5101256;27;45358;-81
2024/04/08 04:45:57;;;;;;;;;6.00;6.00;;;;;15.46;88.69;100511.88;5102646;27;45339;-81
2024/04/08 04:48:23;;;;;;;;;7.50;7.50;;;;;15.51;88.65;100532.19;5095907;27;45506;-80
2024/04/08 04:50:48;;;;;;;;;6.25;6.25;;;;;15.56;88.21;100532.78;5099234;27;45431;-81
2024/04/08 04:53:14;;;;;;;;;6.25;6.25;;;;;15.52;88.18;100516.94;5083638;27;48262;-81
2024/04/08 04:55:39;;;;;;;;;5.50;5.25;;;;;15.54;88.56;100502.41;5082790;27;53500;-81
2024/04/08 04:58:05;;;;;;;;;8.50;7.00;;;;;15.54;88.22;100491.66;5093388;27;45237;-81
2024/04/08 05:00:32;;;;;;;;;8.00;7.50;;;;;15.54;88.30;100488.97;5085961;27;45293;-81
2024/04/08 05:02:58;;;;;;;;;7.75;7.75;;;;;15.56;88.24;100487.03;5104672;27;45349;-81
2024/04/08 05:05:24;;;;;;;;;3.00;3.00;;;;;15.55;88.38;100484.44;5098040;27;45387;-80
2024/04/08 05:07:49;;;;;;;;;8.50;8.00;;;;;15.54;88.37;100477.34;5104855;27;45347;-80
2024/04/08 05:10:14;;;;;;;;;6.25;6.25;;;;;15.55;88.24;100471.88;5103378;27;58518;-81
2024/04/08 05:12:40;;;;;;;;;5.00;5.00;;;;;15.34;88.16;100439.00;5105615;27;49495;-81
2024/04/08 05:15:05;;;;;;;;;5.75;5.75;;;;;15.48;88.08;100456.16;5085286;27;62075;-80
2024/04/08 05:17:30;;;;;;;;;7.75;7.50;;;;;15.50;88.07;100459.63;5104875;27;45368;-81
2024/04/08 05:20:01;;;;;;;;;9.25;6.50;;;;;15.47;88.22;100463.38;5104378;27;58086;-80
2024/04/08 05:22:28;;;;;;;;;6.00;6.00;;;;;15.45;87.86;100451.84;5104587;27;46139;-80
2024/04/08 05:24:53;;;;;;;;;5.25;5.00;;;;;15.50;88.25;100465.91;5094404;27;45502;-81
2024/04/08 05:27:19;;;;;;;;;7.00;6.00;;;;;15.46;88.03;100441.94;5098820;27;45267;-81
2024/04/08 05:29:44;;;;;;;;;9.00;7.50;;;;;15.53;88.11;100454.94;5084782;27;45476;-81
2024/04/08 05:32:09;;;;;;;;;8.00;6.25;;;;;15.54;88.08;100443.22;5090884;27;45427;-81
2024/04/08 05:34:35;;;;;;;;;6.00;5.00;;;;;15.53;88.13;100457.63;5101610;27;55767;-80
2024/04/08 05:37:00;;;;;;;;;9.25;6.75;;;;;15.49;88.19;100450.69;5104769;27;45278;-81
2024/04/08 05:39:25;;;;;;;;;7.50;7.50;;;;;15.50;88.21;100440.81;5102592;27;45301;-81
2024/04/08 05:41:50;;;;;;;;;8.00;7.00;;;;;15.53;88.24;100433.41;5104367;27;46050;-80
2024/04/08 05:44:16;;;;;;;;;8.50;7.25;;;;;15.51;88.26;100423.72;5103844;27;49115;-81
2024/04/08 05:46:42;;;;;;;;;6.25;6.25;;;;;15.50;88.14;100422.84;5100924;27;45471;-80
2024/04/08 05:49:08;;;;;;;;;9.25;8.00;;;;;15.52;87.97;100425.47;5094850;27;45739;-80
2024/04/08 05:51:34;;;;;;;;;8.00;8.00;;;;;15.39;87.92;100403.78;5103859;27;45218;-80
2024/04/08 05:53:59;;;;;;;;;4.75;4.50;;;;;15.40;87.89;100393.88;5104237;27;45317;-80
2024/04/08 05:56:24;;;;;;;;;7.25;7.25;;;;;15.42;87.83;100394.66;5103992;27;45373;-80
2024/04/08 05:58:50;;;;;;;;;7.75;7.75;;;;;15.33;88.19;100379.91;5103741;27;45444;-80
2024/04/08 06:01:16;;;;;;;;;8.25;6.50;;;;;15.22;88.31;100363.53;5080010;27;47107;-81
2024/04/08 06:03:41;;;;;;;;;7.50;7.00;;;;;15.30;88.69;100382.78;5099383;27;45428;-80
2024/04/08 06:06:06;;;;;;;;;5.50;5.25;;;;;15.34;88.63;100392.44;5096129;27;45349;-80
2024/04/08 06:08:32;;;;;;;;;10.50;10.00;;;;;15.38;88.79;100402.03;5100277;27;45344;-81
2024/04/08 06:11:04;;;;;;;;;8.50;7.75;;;;;15.37;88.57;100393.09;5093300;27;45505;-80
2024/04/08 06:13:30;;;;;;;;;10.75;7.00;;;;;15.36;88.79;100387.81;5097783;27;45412;-81
2024/04/08 06:15:56;;;;;;;;;11.00;6.25;;;;;15.44;89.14;100404.38;5094406;27;45293;-81
2024/04/08 06:18:22;;;;;;;;;9.50;8.50;;;;;15.36;89.40;100393.19;5101661;27;45261;-80
2024/04/08 06:21:00;;;;;;;;;8.00;8.00;;;;;15.42;89.13;100411.69;5098732;27;45180;-80
2024/04/08 06:23:25;;;;;;;;;9.00;8.00;;;;;15.48;89.35;100415.81;5097879;27;45300;-81
2024/04/08 06:26:00;;;;;;;;;9.50;9.50;;;;;15.54;89.45;100428.91;5099819;27;45414;-81
2024/04/08 06:29:47;;;;;;;;;10.25;8.50;;;;;15.46;89.58;100406.97;5586326;25;44128;-64
2024/04/08 06:32:13;;;;;;;;;12.25;10.75;;;;;15.33;88.59;100382.59;5487341;25;44326;-65
2024/04/08 06:34:41;;;;;;;;;10.75;7.00;;;;;15.50;90.03;100417.47;5488229;25;44049;-67
2024/04/08 06:37:06;;;;;;;;;10.25;10.25;;;;;15.30;89.89;100388.16;5508102;25;43967;-66
2024/04/08 06:39:31;;;;;;;;;11.00;10.00;;;;;15.47;89.16;100427.53;5518770;25;48385;-66
2024/04/08 06:41:57;;;;;;;;;16.50;11.00;;;;;15.49;88.80;100439.94;5533893;25;44050;-66
2024/04/08 06:44:22;;;;;;;;;8.50;8.50;;;;;15.37;89.27;100411.06;5498648;25;43957;-67
2024/04/08 06:46:47;;;;;;;;;14.75;10.50;;;;;15.31;89.41;100388.06;5543664;25;43918;-66
2024/04/08 06:49:13;;;;;;;;;12.50;11.50;;;;;15.36;89.53;100401.25;5519386;25;44188;-66
2024/04/08 06:51:38;;;;;;;;;12.00;11.25;;;;;15.38;90.20;100394.84;5519668;25;44022;-66
2024/04/08 06:54:04;;;;;;;;;12.50;12.50;;;;;15.40;89.64;100402.81;5529805;25;43935;-66
2024/04/08 06:56:29;;;;;;;;;12.25;11.00;;;;;15.55;90.01;100414.50;5518231;25;44141;-66
2024/04/08 06:58:55;;;;;;;;;12.75;10.00;;;;;15.38;89.61;100372.44;5545396;25;44950;-66
2024/04/08 07:01:20;;;;;;;;;9.25;9.25;;;;;15.54;89.77;100405.56;5539755;25;43913;-66
2024/04/08 07:03:46;;;;;;;;;13.25;11.25;;;;;15.40;89.42;100378.59;5504206;25;44474;-66
2024/04/08 07:06:11;;;;;;;;;10.25;9.25;;;;;15.44;89.33;100396.31;5508901;25;44732;-66
2024/04/08 07:08:36;;;;;;;;;8.25;7.50;;;;;15.53;89.33;100422.66;5508032;25;45581;-66
2024/04/08 07:11:02;;;;;;;;;10.75;10.50;;;;;15.59;88.77;100445.66;5487525;25;44457;-66
2024/04/08 07:13:29;;;;;;;;;10.50;10.00;;;;;15.48;89.58;100443.56;5519916;25;43860;-66
2024/04/08 07:15:58;;;;;;;;;10.00;10.00;;;;;15.63;90.09;100475.94;5508177;25;44057;-66
2024/04/08 07:18:24;;;;;;;;;9.75;7.50;;;;;15.45;89.00;100472.47;5519398;25;43915;-66
2024/04/08 07:20:49;;;;;;;;;10.00;8.25;;;;;15.52;89.21;100487.34;5521778;25;43937;-66
2024/04/08 07:23:15;;;;;;;;;7.00;6.25;;;;;15.70;89.25;100491.66;5451589;25;44298;-66
2024/04/08 07:25:41;;;;;;;;;7.25;7.25;;;;;15.59;88.55;100445.66;5486252;25;44529;-66
2024/04/08 07:28:06;;;;;;;;;7.75;6.50;;;;;15.71;88.38;100447.63;5515723;25;44111;-66
2024/04/08 07:30:31;;;;;;;;;7.75;6.75;;;;;15.54;88.64;100455.81;5518870;25;43962;-66
2024/04/08 07:32:57;;;;;;;;;7.00;7.00;;;;;15.68;89.14;100490.00;5529353;25;43857;-65
2024/04/08 07:35:23;;;;;;;;;8.25;6.00;;;;;15.53;89.04;100454.09;5516877;25;43845;-66
2024/04/08 07:37:48;;;;;;;;;7.75;6.00;;;;;15.61;88.25;100454.50;5524144;25;45721;-66
2024/04/08 07:40:14;;;;;;;;;5.75;5.75;;;;;15.53;87.29;100429.88;5505942;25;44116;-65
2024/04/08 07:42:40;;;;;;;;;6.00;6.00;;;;;15.73;89.02;100466.38;5509571;25;43847;-66
2024/04/08 07:45:06;;;;;;;;;7.25;6.75;;;;;15.72;88.08;100452.06;5500342;25;44178;-66
2024/04/08 07:47:32;;;;;;;;;7.00;7.00;;;;;15.76;87.86;100438.47;5466628;25;46096;-66
2024/04/08 07:49:57;;;;;;;;;10.00;6.75;;;;;15.76;87.70;100428.56;5501931;25;44230;-66
2024/04/08 07:52:23;;;;;;;;;5.25;4.75;;;;;15.65;87.11;100390.63;5502525;25;43855;-65
2024/04/08 07:54:49;;;;;;;;;6.25;5.00;;;;;15.77;87.68;100421.34;5500552;25;44016;-66
2024/04/08 07:57:14;;;;;;;;;7.75;7.50;;;;;15.63;88.03;100392.53;5506092;25;43939;-65
2024/04/08 07:59:40;;;;;;;;;6.25;6.00;;;;;15.84;87.91;100428.13;5510491;25;43964;-65
2024/04/08 08:02:05;;;;;;;;;5.00;5.00;;;;;15.85;87.32;100414.53;5498888;25;43962;-65
2024/04/08 08:04:30;;;;;;;;;5.50;5.50;;;;;15.76;87.63;100395.41;5491604;25;44128;-64
2024/04/08 08:06:56;;;;;;;;;6.75;6.75;;;;;15.85;87.67;100406.47;5497221;25;45562;-65
2024/04/08 08:09:21;;;;;;;;;6.25;6.25;;;;;15.85;87.11;100398.41;5493351;25;43979;-65
2024/04/08 08:11:47;;;;;;;;;8.00;6.75;;;;;15.68;87.09;100350.06;5497322;25;44086;-65
2024/04/08 08:14:12;;;;;;;;;9.00;5.00;;;;;15.81;87.06;100379.84;5498917;25;44046;-65
2024/04/08 08:16:38;;;;;;;;;7.50;6.00;;;;;15.77;87.23;100367.53;5467965;25;45563;-64
2024/04/08 08:19:04;;;;;;;;;5.50;5.25;;;;;15.86;87.39;100389.38;5493811;25;44020;-67
2024/04/08 08:21:29;;;;;;;;;8.25;6.25;;;;;15.71;87.04;100352.59;5500905;25;43915;-64
2024/04/08 08:23:57;;;;;;;;;10.25;9.00;;;;;15.86;86.15;100378.59;5479925;25;44113;-65
2024/04/08 08:26:22;;;;;;;;;8.25;7.00;;;;;15.85;87.52;100390.31;5474831;25;45809;-65
2024/04/08 08:28:48;;;;;;;;;6.75;6.75;;;;;15.65;86.74;100356.53;5498297;25;43974;-65
2024/04/08 08:31:13;;;;;;;;;7.00;6.00;;;;;15.67;87.29;100372.56;5491601;25;44072;-65
2024/04/08 08:33:39;;;;;;;;;6.25;6.25;;;;;15.76;87.86;100388.19;5500704;25;43914;-65
2024/04/08 08:36:05;;;;;;;;;6.25;4.50;;;;;15.73;87.36;100362.28;5492303;25;44024;-65
2024/04/08 08:38:32;;;;;;;;;10.50;7.00;;;;;15.88;86.47;100389.28;5491804;25;44034;-65
2024/04/08 08:41:07;;;;;;;;;9.00;6.00;;;;;15.67;86.62;100364.47;5498937;25;43889;-65
2024/04/08 08:43:37;;;;;;;;;7.75;7.75;;;;;15.83;87.08;100359.94;5471667;25;44703;-65
2024/04/08 08:46:03;;;;;;;;;7.50;7.00;;;;;15.72;88.08;100333.66;5520571;25;44258;-64
2024/04/08 08:48:28;;;;;;;;;8.25;6.00;;;;;15.64;86.11;100330.56;5504777;25;44187;-64
2024/04/08 08:50:55;;;;;;;;;7.00;7.00;;;;;15.65;87.92;100324.25;5501140;25;44147;-64
2024/04/08 08:53:21;;;;;;;;;4.75;4.75;;;;;15.59;87.31;100304.91;5500649;25;44020;-64
2024/04/08 08:55:47;;;;;;;;;6.00;5.00;;;;;15.61;87.22;100298.47;5523305;25;44918;-64
2024/04/08 08:58:13;;;;;;;;;5.75;5.00;;;;;15.71;87.78;100313.09;5462771;25;44407;-64
2024/04/08 09:00:39;;;;;;;;;4.00;4.00;;;;;15.58;87.68;100293.25;5495471;25;44087;-64
2024/04/08 09:03:11;;;;;;;;;5.00;5.00;;;;;15.76;86.96;100306.59;5506984;25;44241;-64
2024/04/08 09:05:36;;;;;;;;;5.25;5.00;;;;;15.62;87.80;100297.53;5494111;25;44000;-64
2024/04/08 09:08:02;;;;;;;;;6.75;6.75;;;;;15.77;88.13;100303.81;5500329;25;57923;-64
2024/04/08 09:10:40;;;;;;;;;6.25;6.00;;;;;15.80;88.37;100298.22;5480970;25;44052;-64
2024/04/08 09:13:17;;;;;;;;;8.50;7.00;;;;;15.69;89.10;100263.03;5515440;25;44085;-64
2024/04/08 09:15:43;;;;;;;;;4.75;4.75;;;;;15.83;88.22;100271.13;5476172;25;46856;-64
2024/04/08 09:18:08;;;;;;;;;6.00;4.75;;;;;15.80;88.48;100271.31;5501756;25;43919;-64
2024/04/08 09:20:33;;;;;;;;;6.00;5.00;;;;;15.86;88.50;100291.63;5526711;25;43882;-64
2024/04/08 09:22:59;;;;;;;;;8.75;6.00;;;;;15.77;87.96;100281.41;5501419;25;43835;-64
2024/04/08 09:25:25;;;;;;;;;10.25;7.00;;;;;15.78;88.28;100275.09;5504400;25;44147;-64
2024/04/08 09:27:50;;;;;;;;;7.00;6.75;;;;;15.80;88.91;100270.47;5500457;25;44184;-64
2024/04/08 09:30:16;;;;;;;;;7.75;5.75;;;;;15.80;88.38;100265.94;5485225;25;44283;-64
2024/04/08 09:32:41;;;;;;;;;5.75;5.75;;;;;15.92;88.33;100291.22;5509847;25;43933;-64
2024/04/08 09:35:08;;;;;;;;;5.25;5.25;;;;;15.83;88.65;100276.50;5503133;25;45928;-64
2024/04/08 09:37:33;;;;;;;;;5.00;5.00;;;;;15.81;87.69;100270.38;5508510;25;44316;-64
2024/04/08 09:40:01;;;;;;;;;5.50;5.50;;;;;15.85;88.97;100274.59;5499530;25;43837;-64
2024/04/08 09:42:32;;;;;;;;;5.25;5.00;;;;;15.83;88.27;100267.59;5499442;25;44003;-64
2024/04/08 09:44:59;;;;;;;;;5.50;5.50;;;;;15.97;89.28;100283.75;5499014;25;45710;-64
2024/04/08 09:47:26;;;;;;;;;6.25;6.25;;;;;15.91;88.82;100276.91;5430461;25;45116;-64
2024/04/08 09:49:55;;;;;;;;;6.00;6.00;;;;;15.99;88.57;100289.00;5498876;25;44073;-65
2024/04/08 09:52:21;;;;;;;;;7.00;6.00;;;;;16.01;88.93;100296.06;5517658;25;44013;-64
2024/04/08 09:54:46;;;;;;;;;6.25;6.25;;;;;16.05;88.56;100294.03;5535129;25;44109;-64
2024/04/08 09:57:15;;;;;;;;;7.75;6.25;;;;;16.08;88.93;100288.47;5515077;25;43999;-64
2024/04/08 09:59:42;;;;;;;;;4.00;4.00;;;;;16.16;89.31;100290.69;5500343;25;43856;-64
2024/04/08 10:02:17;;;;;;;;;6.75;6.75;;;;;16.09;88.99;100261.44;5485102;25;43953;-64
2024/04/08 10:04:43;;;;;;;;;6.25;5.00;;;;;16.21;89.93;100265.19;5502873;25;43966;-64
2024/04/08 10:07:09;;;;;;;;;8.25;6.75;;;;;16.31;89.34;100268.16;5506212;25;43834;-64
2024/04/08 10:09:35;;;;;;;;;8.00;6.75;;;;;16.35;89.07;100258.06;5515793;25;43970;-64
2024/04/08 10:12:04;;;;;;;;;7.75;5.75;;;;;16.39;89.04;100252.38;5490226;25;44184;-64
2024/04/08 10:14:30;;;;;;;;;8.00;6.75;;;;;16.40;88.41;100246.00;5496303;25;45799;-64
2024/04/08 10:16:58;;;;;;;;;6.00;5.25;;;;;16.32;87.83;100216.00;5466109;25;44315;-64
2024/04/08 10:19:24;;;;;;;;;6.75;6.25;;;;;16.41;89.30;100210.03;5499654;25;44081;-64
2024/04/08 10:21:58;;;;;;;;;5.00;5.00;;;;;16.48;89.04;100205.09;5488803;25;44117;-64
2024/04/08 10:24:31;;;;;;;;;7.50;6.00;;;;;16.48;89.54;100186.25;5513434;25;43925;-64
2024/04/08 10:27:05;;;;;;;;;6.75;6.75;;;;;16.62;89.16;100193.41;5505769;25;44447;-65
2024/04/08 10:29:36;;;;;;;;;6.75;6.25;;;;;16.63;88.21;100181.69;5491941;25;44074;-66
2024/04/08 10:32:03;;;;;;;;;5.25;5.25;;;;;16.84;87.68;100198.25;5471591;25;43847;-66
2024/04/08 10:34:29;;;;;;;;;7.00;7.00;;;;;16.84;88.56;100182.97;5538279;25;44093;-65
2024/04/08 10:36:55;;;;;;;;;5.25;5.25;;;;;16.94;88.54;100185.91;5512786;25;43848;-66
2024/04/08 10:39:26;;;;;;;;;6.00;6.00;;;;;16.72;88.33;100129.84;5505243;25;43915;-65
2024/04/08 10:41:54;;;;;;;;;5.50;5.50;;;;;16.84;87.60;100130.88;5537997;25;45764;-65
2024/04/08 10:44:20;;;;;;;;;5.50;4.50;;;;;16.88;88.09;100127.00;5504878;25;45192;-65
2024/04/08 10:46:46;;;;;;;;;8.75;6.00;;;;;16.99;87.57;100131.66;5530115;25;44191;-66
2024/04/08 10:49:11;;;;;;;;;6.25;6.25;;;;;17.03;87.98;100125.94;5494536;25;44075;-65
2024/04/08 10:51:36;;;;;;;;;5.50;4.75;;;;;17.31;88.29;100153.72;5499087;25;44135;-65
2024/04/08 10:54:02;;;;;;;;;7.25;6.25;;;;;17.28;87.89;100126.09;5498135;25;46275;-65
2024/04/08 10:56:27;;;;;;;;;6.25;5.50;;;;;17.25;87.44;100102.03;5500051;25;43837;-66
2024/04/08 10:58:53;;;;;;;;;8.75;6.00;;;;;17.38;86.37;100114.53;5467463;25;44036;-65
2024/04/08 11:01:19;;;;;;;;;7.25;5.50;;;;;17.43;85.38;100110.66;5502594;25;44014;-65
2024/04/08 11:03:45;;;;;;;;;5.25;4.00;;;;;17.48;86.32;100113.88;5500291;25;45286;-66
2024/04/08 11:06:10;;;;;;;;;8.00;4.00;;;;;17.47;85.28;100098.66;5499652;25;43967;-66
2024/04/08 11:08:37;;;;;;;;;5.00;5.00;;;;;17.46;85.00;100097.81;5500167;25;44238;-66
2024/04/08 11:11:03;;;;;;;;;4.25;4.25;;;;;17.56;85.08;100087.22;5499797;25;43930;-66
2024/04/08 11:13:29;;;;;;;;;3.50;2.75;;;;;17.60;84.86;100077.91;5499666;25;44009;-66
2024/04/08 11:15:54;;;;;;;;;4.50;2.50;;;;;17.73;84.12;100092.25;5469905;25;44336;-66
2024/04/08 11:18:20;;;;;;;;;5.25;4.25;;;;;17.76;83.36;100085.78;5480085;25;43827;-66